Hickory Ridge, Arkansas
Current Conditions -  °F | °C
As of 5:44 PM on Thursday 18 Dec 2014 (Local Time) from KM19 Reporting Station
Light Rain Light Rain  
Wind Chill:   Ceiling: 1400
Heat Index:   Visibility: 1mi
Dew Point:   Wind: 6mph
Humidity: 81%   Direction: 80°E
Pressure: 30.22"   Gusts: NA
Location:  35.4°N, 91°W
Report Text: KM19 182344Z AUTO 08005KT 1SM -RA BR OVC014 06/03 A3022 RMK AO2 VIS 1/2V5 RAB40 P0000
Loading
Personal Weather Stations






























Interactive Weather Map New forecast layout! Learn more

10-Day Weather Forecast

Advertisements
Track Severe Weather on mobile